sensor_id;sensor_type;location;lat;lon;timestamp;P1;durP1;ratioP1;P2;durP2;ratioP2
2111;SDS011;1062;52.538;13.400;2023-03-01T00:00:38;15.23;;;11.10;;
2111;SDS011;1062;52.538;13.400;2023-03-01T00:03:04;12.87;;;9.60;;
2111;SDS011;1062;52.538;13.400;2023-03-01T00:05:29;10.57;;;9.03;;
2111;SDS011;1062;52.538;13.400;2023-03-01T00:07:55;14.30;;;9.47;;
2111;SDS011;1062;52.538;13.400;2023-03-01T00:10:20;14.27;;;10.77;;
2111;SDS011;1062;52.538;13.400;2023-03-01T00:12:46;14.83;;;8.93;;
2111;SDS011;1062;52.538;13.400;2023-03-01T00:15:12;17.20;;;13.00;;
2111;SDS011;1062;52.538;13.400;2023-03-01T00:17:37;12.77;;;9.03;;
2111;SDS011;1062;52.538;13.400;2023-03-01T00:20:03;17.10;;;11.03;;
2111;SDS011;1062;52.538;13.400;2023-03-01T00:22:33;19.47;;;12.27;;
2111;SDS011;1062;52.538;13.400;2023-03-01T00:24:58;15.60;;;10.50;;
2111;SDS011;1062;52.538;13.400;2023-03-01T00:27:24;14.50;;;11.03;;
2111;SDS011;1062;52.538;13.400;2023-03-01T00:29:49;16.63;;;10.43;;
2111;SDS011;1062;52.538;13.400;2023-03-01T00:32:15;15.60;;;10.63;;
2111;SDS011;1062;52.538;13.400;2023-03-01T00:34:41;15.00;;;11.07;;
2111;SDS011;1062;52.538;13.400;2023-03-01T00:37:06;19.80;;;10.97;;
2111;SDS011;1062;52.538;13.400;2023-03-01T00:39:32;16.57;;;10.57;;
2111;SDS011;1062;52.538;13.400;2023-03-01T00:41:58;19.53;;;10.80;;
2111;SDS011;1062;52.538;13.400;2023-03-01T00:44:23;18.17;;;10.13;;
2111;SDS011;1062;52.538;13.400;2023-03-01T00:46:49;25.37;;;13.50;;
2111;SDS011;1062;52.538;13.400;2023-03-01T00:49:15;22.53;;;11.63;;
2111;SDS011;1062;52.538;13.400;2023-03-01T00:51:40;22.27;;;12.03;;
2111;SDS011;1062;52.538;13.400;2023-03-01T00:54:09;17.73;;;12.77;;
2111;SDS011;1062;52.538;13.400;2023-03-01T00:56:35;18.90;;;11.80;;
2111;SDS011;1062;52.538;13.400;2023-03-01T00:59:00;14.50;;;11.70;;
2111;SDS011;1062;52.538;13.400;2023-03-01T01:01:27;17.90;;;10.60;;
2111;SDS011;1062;52.538;13.400;2023-03-01T01:03:56;16.47;;;10.60;;
2111;SDS011;1062;52.538;13.400;2023-03-01T01:06:24;17.20;;;12.90;;
2111;SDS011;1062;52.538;13.400;2023-03-01T01:08:52;19.97;;;12.03;;
2111;SDS011;1062;52.538;13.400;2023-03-01T01:11:18;21.23;;;11.67;;
2111;SDS011;1062;52.538;13.400;2023-03-01T01:13:45;23.70;;;11.50;;
2111;SDS011;1062;52.538;13.400;2023-03-01T01:16:11;16.97;;;11.90;;
2111;SDS011;1062;52.538;13.400;2023-03-01T01:18:37;19.87;;;12.10;;
2111;SDS011;1062;52.538;13.400;2023-03-01T01:21:05;15.93;;;13.03;;
2111;SDS011;1062;52.538;13.400;2023-03-01T01:23:35;17.50;;;10.10;;
2111;SDS011;1062;52.538;13.400;2023-03-01T01:26:09;21.30;;;12.77;;
2111;SDS011;1062;52.538;13.400;2023-03-01T01:28:37;23.70;;;13.30;;
2111;SDS011;1062;52.538;13.400;2023-03-01T01:31:03;12.33;;;10.63;;
2111;SDS011;1062;52.538;13.400;2023-03-01T01:33:29;17.30;;;11.27;;
2111;SDS011;1062;52.538;13.400;2023-03-01T01:35:55;17.17;;;12.97;;
2111;SDS011;1062;52.538;13.400;2023-03-01T01:38:21;19.50;;;13.30;;
2111;SDS011;1062;52.538;13.400;2023-03-01T01:40:47;18.10;;;12.60;;
2111;SDS011;1062;52.538;13.400;2023-03-01T01:43:18;23.07;;;13.10;;
2111;SDS011;1062;52.538;13.400;2023-03-01T01:45:55;16.93;;;12.53;;
2111;SDS011;1062;52.538;13.400;2023-03-01T01:48:28;24.90;;;12.73;;
2111;SDS011;1062;52.538;13.400;2023-03-01T01:51:05;12.73;;;10.07;;
2111;SDS011;1062;52.538;13.400;2023-03-01T01:53:34;17.60;;;12.10;;
2111;SDS011;1062;52.538;13.400;2023-03-01T01:56:01;19.63;;;13.53;;
2111;SDS011;1062;52.538;13.400;2023-03-01T01:58:28;20.27;;;11.27;;
2111;SDS011;1062;52.538;13.400;2023-03-01T02:00:55;17.43;;;11.97;;
2111;SDS011;1062;52.538;13.400;2023-03-01T02:03:26;18.30;;;11.23;;
2111;SDS011;1062;52.538;13.400;2023-03-01T02:08:32;14.37;;;12.30;;
2111;SDS011;1062;52.538;13.400;2023-03-01T02:11:02;16.20;;;11.07;;
2111;SDS011;1062;52.538;13.400;2023-03-01T02:13:29;17.77;;;11.00;;
2111;SDS011;1062;52.538;13.400;2023-03-01T02:15:56;15.50;;;9.97;;
2111;SDS011;1062;52.538;13.400;2023-03-01T02:18:22;14.40;;;10.23;;
2111;SDS011;1062;52.538;13.400;2023-03-01T02:23:27;20.37;;;10.63;;
2111;SDS011;1062;52.538;13.400;2023-03-01T02:28:35;16.57;;;10.83;;
2111;SDS011;1062;52.538;13.400;2023-03-01T02:31:06;16.40;;;11.97;;
2111;SDS011;1062;52.538;13.400;2023-03-01T02:33:52;19.00;;;12.10;;
2111;SDS011;1062;52.538;13.400;2023-03-01T02:36:19;12.80;;;10.13;;
2111;SDS011;1062;52.538;13.400;2023-03-01T02:38:56;20.83;;;10.93;;
2111;SDS011;1062;52.538;13.400;2023-03-01T02:41:24;12.73;;;9.33;;
2111;SDS011;1062;52.538;13.400;2023-03-01T02:43:53;24.40;;;13.20;;
2111;SDS011;1062;52.538;13.400;2023-03-01T02:46:20;19.67;;;11.37;;
2111;SDS011;1062;52.538;13.400;2023-03-01T02:48:49;18.07;;;11.57;;
2111;SDS011;1062;52.538;13.400;2023-03-01T02:56:34;15.50;;;9.77;;
2111;SDS011;1062;52.538;13.400;2023-03-01T02:59:00;13.97;;;10.07;;
2111;SDS011;1062;52.538;13.400;2023-03-01T03:01:27;12.73;;;9.70;;
2111;SDS011;1062;52.538;13.400;2023-03-01T03:04:03;10.37;;;9.07;;
2111;SDS011;1062;52.538;13.400;2023-03-01T03:06:32;19.00;;;9.90;;
2111;SDS011;1062;52.538;13.400;2023-03-01T03:08:58;13.33;;;9.27;;
2111;SDS011;1062;52.538;13.400;2023-03-01T03:11:24;21.27;;;10.10;;
2111;SDS011;1062;52.538;13.400;2023-03-01T03:13:50;14.60;;;9.97;;
2111;SDS011;1062;52.538;13.400;2023-03-01T03:16:16;13.77;;;9.83;;
2111;SDS011;1062;52.538;13.400;2023-03-01T03:18:43;13.00;;;9.37;;
2111;SDS011;1062;52.538;13.400;2023-03-01T03:21:09;12.23;;;8.33;;
2111;SDS011;1062;52.538;13.400;2023-03-01T03:23:36;11.90;;;8.30;;
2111;SDS011;1062;52.538;13.400;2023-03-01T03:26:02;10.90;;;8.27;;
2111;SDS011;1062;52.538;13.400;2023-03-01T03:28:32;11.80;;;8.13;;
2111;SDS011;1062;52.538;13.400;2023-03-01T03:30:58;9.00;;;6.57;;
2111;SDS011;1062;52.538;13.400;2023-03-01T03:33:28;10.83;;;7.50;;
2111;SDS011;1062;52.538;13.400;2023-03-01T03:35:55;9.20;;;7.43;;
2111;SDS011;1062;52.538;13.400;2023-03-01T03:38:21;8.73;;;7.90;;
2111;SDS011;1062;52.538;13.400;2023-03-01T03:43:21;13.03;;;8.47;;
2111;SDS011;1062;52.538;13.400;2023-03-01T03:45:48;12.07;;;8.23;;
2111;SDS011;1062;52.538;13.400;2023-03-01T03:48:15;17.43;;;8.50;;
2111;SDS011;1062;52.538;13.400;2023-03-01T03:50:46;10.77;;;8.40;;
2111;SDS011;1062;52.538;13.400;2023-03-01T03:53:14;9.73;;;8.07;;
2111;SDS011;1062;52.538;13.400;2023-03-01T03:55:40;14.40;;;9.27;;
2111;SDS011;1062;52.538;13.400;2023-03-01T03:58:07;14.83;;;8.73;;
2111;SDS011;1062;52.538;13.400;2023-03-01T04:00:35;17.67;;;8.90;;
2111;SDS011;1062;52.538;13.400;2023-03-01T04:03:05;12.30;;;7.60;;
2111;SDS011;1062;52.538;13.400;2023-03-01T04:05:31;10.60;;;8.33;;
2111;SDS011;1062;52.538;13.400;2023-03-01T04:07:57;13.93;;;8.87;;
2111;SDS011;1062;52.538;13.400;2023-03-01T04:10:28;11.63;;;8.30;;
2111;SDS011;1062;52.538;13.400;2023-03-01T04:12:54;11.53;;;8.33;;
2111;SDS011;1062;52.538;13.400;2023-03-01T04:15:21;13.10;;;9.73;;
2111;SDS011;1062;52.538;13.400;2023-03-01T04:17:49;12.60;;;8.80;;
2111;SDS011;1062;52.538;13.400;2023-03-01T04:20:17;12.40;;;8.23;;
2111;SDS011;1062;52.538;13.400;2023-03-01T04:22:50;11.83;;;7.37;;
2111;SDS011;1062;52.538;13.400;2023-03-01T04:25:17;10.80;;;9.17;;
2111;SDS011;1062;52.538;13.400;2023-03-01T04:27:43;17.10;;;9.63;;
2111;SDS011;1062;52.538;13.400;2023-03-01T04:30:09;13.03;;;7.80;;
2111;SDS011;1062;52.538;13.400;2023-03-01T04:32:35;11.17;;;8.50;;
2111;SDS011;1062;52.538;13.400;2023-03-01T04:35:00;9.47;;;7.27;;
2111;SDS011;1062;52.538;13.400;2023-03-01T04:37:26;10.20;;;8.67;;
2111;SDS011;1062;52.538;13.400;2023-03-01T04:39:52;15.63;;;8.47;;
2111;SDS011;1062;52.538;13.400;2023-03-01T04:42:18;12.23;;;7.90;;
2111;SDS011;1062;52.538;13.400;2023-03-01T04:44:44;10.73;;;7.13;;
2111;SDS011;1062;52.538;13.400;2023-03-01T04:47:11;9.93;;;7.60;;
2111;SDS011;1062;52.538;13.400;2023-03-01T04:49:37;10.80;;;8.77;;
2111;SDS011;1062;52.538;13.400;2023-03-01T04:52:03;12.23;;;9.20;;
2111;SDS011;1062;52.538;13.400;2023-03-01T04:54:31;13.73;;;8.90;;
2111;SDS011;1062;52.538;13.400;2023-03-01T04:56:58;9.63;;;8.57;;
2111;SDS011;1062;52.538;13.400;2023-03-01T04:59:23;10.57;;;7.43;;
2111;SDS011;1062;52.538;13.400;2023-03-01T05:01:53;14.57;;;9.70;;
2111;SDS011;1062;52.538;13.400;2023-03-01T05:04:20;10.57;;;9.33;;
2111;SDS011;1062;52.538;13.400;2023-03-01T05:06:46;21.10;;;9.67;;
2111;SDS011;1062;52.538;13.400;2023-03-01T05:09:12;9.63;;;8.63;;
2111;SDS011;1062;52.538;13.400;2023-03-01T05:11:38;10.33;;;9.33;;
2111;SDS011;1062;52.538;13.400;2023-03-01T05:14:04;11.37;;;8.60;;
2111;SDS011;1062;52.538;13.400;2023-03-01T05:16:31;16.93;;;10.67;;
2111;SDS011;1062;52.538;13.400;2023-03-01T05:18:57;14.33;;;10.07;;
2111;SDS011;1062;52.538;13.400;2023-03-01T05:21:24;15.20;;;10.50;;
2111;SDS011;1062;52.538;13.400;2023-03-01T05:23:50;13.97;;;9.93;;
2111;SDS011;1062;52.538;13.400;2023-03-01T05:26:16;10.73;;;9.80;;
2111;SDS011;1062;52.538;13.400;2023-03-01T05:28:43;16.47;;;10.57;;
2111;SDS011;1062;52.538;13.400;2023-03-01T05:31:09;15.30;;;10.43;;
2111;SDS011;1062;52.538;13.400;2023-03-01T05:33:36;16.23;;;9.67;;
2111;SDS011;1062;52.538;13.400;2023-03-01T05:36:03;18.10;;;12.43;;
2111;SDS011;1062;52.538;13.400;2023-03-01T05:38:28;17.20;;;10.97;;
2111;SDS011;1062;52.538;13.400;2023-03-01T05:40:54;12.90;;;8.93;;
2111;SDS011;1062;52.538;13.400;2023-03-01T05:43:20;16.57;;;10.20;;
2111;SDS011;1062;52.538;13.400;2023-03-01T05:45:45;14.20;;;10.73;;
2111;SDS011;1062;52.538;13.400;2023-03-01T05:48:12;16.70;;;10.30;;
2111;SDS011;1062;52.538;13.400;2023-03-01T05:50:39;15.10;;;10.97;;
2111;SDS011;1062;52.538;13.400;2023-03-01T05:53:09;14.43;;;10.10;;
2111;SDS011;1062;52.538;13.400;2023-03-01T05:55:36;16.17;;;10.60;;
2111;SDS011;1062;52.538;13.400;2023-03-01T05:58:04;9.67;;;8.30;;
2111;SDS011;1062;52.538;13.400;2023-03-01T06:00:32;14.03;;;9.40;;
2111;SDS011;1062;52.538;13.400;2023-03-01T06:02:59;12.93;;;9.73;;
2111;SDS011;1062;52.538;13.400;2023-03-01T06:05:25;10.63;;;9.17;;
2111;SDS011;1062;52.538;13.400;2023-03-01T06:07:52;16.10;;;9.67;;
2111;SDS011;1062;52.538;13.400;2023-03-01T06:10:19;15.73;;;11.17;;
2111;SDS011;1062;52.538;13.400;2023-03-01T06:12:46;16.13;;;9.60;;
2111;SDS011;1062;52.538;13.400;2023-03-01T06:15:13;8.40;;;7.53;;
2111;SDS011;1062;52.538;13.400;2023-03-01T06:17:40;16.27;;;11.37;;
2111;SDS011;1062;52.538;13.400;2023-03-01T06:20:09;14.67;;;11.17;;
2111;SDS011;1062;52.538;13.400;2023-03-01T06:22:39;14.20;;;9.60;;
2111;SDS011;1062;52.538;13.400;2023-03-01T06:25:08;14.77;;;10.87;;
2111;SDS011;1062;52.538;13.400;2023-03-01T06:27:34;13.77;;;9.57;;
2111;SDS011;1062;52.538;13.400;2023-03-01T06:30:00;13.70;;;9.80;;
2111;SDS011;1062;52.538;13.400;2023-03-01T06:32:26;14.00;;;11.30;;
2111;SDS011;1062;52.538;13.400;2023-03-01T06:34:52;13.53;;;10.33;;
2111;SDS011;1062;52.538;13.400;2023-03-01T06:37:17;14.17;;;9.50;;
2111;SDS011;1062;52.538;13.400;2023-03-01T06:39:43;15.67;;;11.50;;
2111;SDS011;1062;52.538;13.400;2023-03-01T06:42:09;17.80;;;11.53;;
2111;SDS011;1062;52.538;13.400;2023-03-01T06:44:37;17.63;;;10.33;;
2111;SDS011;1062;52.538;13.400;2023-03-01T06:47:03;13.97;;;11.67;;
2111;SDS011;1062;52.538;13.400;2023-03-01T06:49:29;16.20;;;10.33;;
2111;SDS011;1062;52.538;13.400;2023-03-01T06:51:55;15.50;;;11.07;;
2111;SDS011;1062;52.538;13.400;2023-03-01T06:54:21;23.40;;;12.77;;
2111;SDS011;1062;52.538;13.400;2023-03-01T06:56:47;16.77;;;13.60;;
2111;SDS011;1062;52.538;13.400;2023-03-01T06:59:13;14.60;;;9.97;;
2111;SDS011;1062;52.538;13.400;2023-03-01T07:01:39;16.40;;;12.03;;
2111;SDS011;1062;52.538;13.400;2023-03-01T07:04:05;16.37;;;11.10;;
2111;SDS011;1062;52.538;13.400;2023-03-01T07:06:30;20.27;;;13.30;;
2111;SDS011;1062;52.538;13.400;2023-03-01T07:08:56;14.40;;;10.80;;
2111;SDS011;1062;52.538;13.400;2023-03-01T07:11:21;20.40;;;13.63;;
2111;SDS011;1062;52.538;13.400;2023-03-01T07:13:48;22.03;;;13.30;;
2111;SDS011;1062;52.538;13.400;2023-03-01T07:16:13;12.93;;;11.53;;
2111;SDS011;1062;52.538;13.400;2023-03-01T07:18:39;15.77;;;12.57;;
2111;SDS011;1062;52.538;13.400;2023-03-01T07:21:08;21.37;;;13.00;;
2111;SDS011;1062;52.538;13.400;2023-03-01T07:23:36;20.47;;;14.27;;
2111;SDS011;1062;52.538;13.400;2023-03-01T07:26:01;19.33;;;12.60;;
2111;SDS011;1062;52.538;13.400;2023-03-01T07:28:27;22.63;;;14.60;;
2111;SDS011;1062;52.538;13.400;2023-03-01T07:30:53;18.00;;;13.73;;
2111;SDS011;1062;52.538;13.400;2023-03-01T07:33:20;21.33;;;12.70;;
2111;SDS011;1062;52.538;13.400;2023-03-01T07:35:45;16.93;;;12.77;;
2111;SDS011;1062;52.538;13.400;2023-03-01T07:38:11;20.00;;;12.97;;
2111;SDS011;1062;52.538;13.400;2023-03-01T07:40:37;15.40;;;12.20;;
2111;SDS011;1062;52.538;13.400;2023-03-01T07:43:02;13.70;;;10.77;;
2111;SDS011;1062;52.538;13.400;2023-03-01T07:45:28;16.70;;;11.63;;
2111;SDS011;1062;52.538;13.400;2023-03-01T07:47:54;21.43;;;13.00;;
2111;SDS011;1062;52.538;13.400;2023-03-01T07:50:21;20.20;;;12.57;;
2111;SDS011;1062;52.538;13.400;2023-03-01T07:52:47;13.20;;;11.80;;
2111;SDS011;1062;52.538;13.400;2023-03-01T07:55:14;13.43;;;12.00;;
2111;SDS011;1062;52.538;13.400;2023-03-01T07:57:40;16.30;;;10.93;;
2111;SDS011;1062;52.538;13.400;2023-03-01T08:00:06;14.70;;;10.83;;
2111;SDS011;1062;52.538;13.400;2023-03-01T08:02:32;13.67;;;9.50;;
2111;SDS011;1062;52.538;13.400;2023-03-01T08:04:58;11.20;;;9.60;;
2111;SDS011;1062;52.538;13.400;2023-03-01T08:07:24;13.47;;;11.90;;
2111;SDS011;1062;52.538;13.400;2023-03-01T08:09:49;11.17;;;9.33;;
2111;SDS011;1062;52.538;13.400;2023-03-01T08:12:15;13.70;;;10.43;;
2111;SDS011;1062;52.538;13.400;2023-03-01T08:14:43;11.57;;;9.50;;
2111;SDS011;1062;52.538;13.400;2023-03-01T08:17:09;14.57;;;10.63;;
2111;SDS011;1062;52.538;13.400;2023-03-01T08:19:35;11.40;;;10.23;;
2111;SDS011;1062;52.538;13.400;2023-03-01T08:22:01;14.80;;;10.63;;
2111;SDS011;1062;52.538;13.400;2023-03-01T08:24:27;9.30;;;8.03;;
2111;SDS011;1062;52.538;13.400;2023-03-01T08:26:53;8.83;;;7.90;;
2111;SDS011;1062;52.538;13.400;2023-03-01T08:29:19;9.27;;;8.37;;
2111;SDS011;1062;52.538;13.400;2023-03-01T08:31:45;8.07;;;7.20;;
2111;SDS011;1062;52.538;13.400;2023-03-01T08:34:11;8.27;;;6.40;;
2111;SDS011;1062;52.538;13.400;2023-03-01T08:36:40;10.60;;;6.87;;
2111;SDS011;1062;52.538;13.400;2023-03-01T08:39:08;7.13;;;6.43;;
2111;SDS011;1062;52.538;13.400;2023-03-01T08:41:35;6.90;;;5.67;;
2111;SDS011;1062;52.538;13.400;2023-03-01T08:44:01;8.83;;;6.37;;
2111;SDS011;1062;52.538;13.400;2023-03-01T08:46:28;8.83;;;6.87;;
2111;SDS011;1062;52.538;13.400;2023-03-01T08:48:54;9.17;;;6.43;;
2111;SDS011;1062;52.538;13.400;2023-03-01T08:51:21;8.50;;;7.07;;
2111;SDS011;1062;52.538;13.400;2023-03-01T08:53:47;8.10;;;6.37;;
2111;SDS011;1062;52.538;13.400;2023-03-01T08:56:13;8.90;;;6.83;;
2111;SDS011;1062;52.538;13.400;2023-03-01T08:58:39;5.90;;;5.23;;
2111;SDS011;1062;52.538;13.400;2023-03-01T09:01:08;8.30;;;5.83;;
2111;SDS011;1062;52.538;13.400;2023-03-01T09:03:34;7.27;;;5.53;;
2111;SDS011;1062;52.538;13.400;2023-03-01T09:06:00;7.50;;;6.00;;
2111;SDS011;1062;52.538;13.400;2023-03-01T09:08:26;7.90;;;6.00;;
2111;SDS011;1062;52.538;13.400;2023-03-01T09:10:52;7.30;;;5.63;;
2111;SDS011;1062;52.538;13.400;2023-03-01T09:13:18;10.17;;;5.63;;
2111;SDS011;1062;52.538;13.400;2023-03-01T09:15:43;7.70;;;5.53;;
2111;SDS011;1062;52.538;13.400;2023-03-01T09:18:09;5.77;;;5.27;;
2111;SDS011;1062;52.538;13.400;2023-03-01T09:20:34;5.20;;;4.70;;
2111;SDS011;1062;52.538;13.400;2023-03-01T09:23:00;6.43;;;4.60;;
2111;SDS011;1062;52.538;13.400;2023-03-01T09:25:26;6.00;;;5.40;;
2111;SDS011;1062;52.538;13.400;2023-03-01T09:27:52;6.20;;;4.43;;
2111;SDS011;1062;52.538;13.400;2023-03-01T09:30:18;5.27;;;4.70;;
2111;SDS011;1062;52.538;13.400;2023-03-01T09:32:44;7.40;;;5.53;;
2111;SDS011;1062;52.538;13.400;2023-03-01T09:35:10;8.87;;;5.83;;
2111;SDS011;1062;52.538;13.400;2023-03-01T09:37:36;6.30;;;5.60;;
2111;SDS011;1062;52.538;13.400;2023-03-01T09:40:06;5.73;;;5.13;;
2111;SDS011;1062;52.538;13.400;2023-03-01T09:42:45;5.97;;;5.40;;
2111;SDS011;1062;52.538;13.400;2023-03-01T09:45:19;5.17;;;4.67;;
2111;SDS011;1062;52.538;13.400;2023-03-01T09:47:52;6.23;;;4.80;;
2111;SDS011;1062;52.538;13.400;2023-03-01T09:50:19;5.73;;;4.00;;
2111;SDS011;1062;52.538;13.400;2023-03-01T09:52:48;4.47;;;4.07;;
2111;SDS011;1062;52.538;13.400;2023-03-01T09:55:37;5.33;;;4.27;;
2111;SDS011;1062;52.538;13.400;2023-03-01T10:00:53;3.90;;;2.37;;
2111;SDS011;1062;52.538;13.400;2023-03-01T10:03:39;3.43;;;2.80;;
2111;SDS011;1062;52.538;13.400;2023-03-01T10:06:20;3.80;;;3.10;;
2111;SDS011;1062;52.538;13.400;2023-03-01T10:11:22;5.33;;;3.63;;
2111;SDS011;1062;52.538;13.400;2023-03-01T10:14:04;5.87;;;4.07;;
2111;SDS011;1062;52.538;13.400;2023-03-01T10:16:52;8.37;;;3.90;;
2111;SDS011;1062;52.538;13.400;2023-03-01T10:22:19;4.70;;;2.80;;
2111;SDS011;1062;52.538;13.400;2023-03-01T10:24:46;6.37;;;2.90;;
2111;SDS011;1062;52.538;13.400;2023-03-01T10:27:22;4.13;;;3.17;;
2111;SDS011;1062;52.538;13.400;2023-03-01T10:32:36;4.10;;;2.60;;
2111;SDS011;1062;52.538;13.400;2023-03-01T10:35:18;2.73;;;1.93;;
2111;SDS011;1062;52.538;13.400;2023-03-01T10:37:56;4.47;;;2.57;;
2111;SDS011;1062;52.538;13.400;2023-03-01T10:40:32;4.07;;;2.57;;
2111;SDS011;1062;52.538;13.400;2023-03-01T10:43:00;3.93;;;3.53;;
2111;SDS011;1062;52.538;13.400;2023-03-01T10:45:35;6.03;;;2.83;;
2111;SDS011;1062;52.538;13.400;2023-03-01T10:50:31;2.30;;;2.10;;
2111;SDS011;1062;52.538;13.400;2023-03-01T10:52:58;4.10;;;2.73;;
2111;SDS011;1062;52.538;13.400;2023-03-01T10:58:39;3.23;;;2.07;;
2111;SDS011;1062;52.538;13.400;2023-03-01T11:00:47;2.50;;;1.97;;
2111;SDS011;1062;52.538;13.400;2023-03-01T11:03:14;3.27;;;2.10;;
2111;SDS011;1062;52.538;13.400;2023-03-01T11:05:50;4.60;;;2.60;;
2111;SDS011;1062;52.538;13.400;2023-03-01T11:08:25;3.17;;;2.30;;
2111;SDS011;1062;52.538;13.400;2023-03-01T11:11:18;4.03;;;2.37;;
2111;SDS011;1062;52.538;13.400;2023-03-01T11:13:55;5.90;;;2.77;;
2111;SDS011;1062;52.538;13.400;2023-03-01T11:18:56;2.70;;;2.00;;
2111;SDS011;1062;52.538;13.400;2023-03-01T11:21:29;2.13;;;1.90;;
2111;SDS011;1062;52.538;13.400;2023-03-01T11:23:58;2.40;;;2.20;;
2111;SDS011;1062;52.538;13.400;2023-03-01T11:26:26;4.10;;;2.70;;
2111;SDS011;1062;52.538;13.400;2023-03-01T11:28:53;4.17;;;1.93;;
2111;SDS011;1062;52.538;13.400;2023-03-01T11:31:23;2.37;;;1.60;;
2111;SDS011;1062;52.538;13.400;2023-03-01T11:34:09;2.87;;;2.00;;
2111;SDS011;1062;52.538;13.400;2023-03-01T11:39:52;3.50;;;2.23;;
2111;SDS011;1062;52.538;13.400;2023-03-01T11:42:25;4.20;;;1.90;;
2111;SDS011;1062;52.538;13.400;2023-03-01T11:45:19;6.50;;;3.93;;
2111;SDS011;1062;52.538;13.400;2023-03-01T11:50:44;2.67;;;2.03;;
2111;SDS011;1062;52.538;13.400;2023-03-01T11:53:31;3.67;;;3.23;;
2111;SDS011;1062;52.538;13.400;2023-03-01T11:56:22;3.53;;;2.47;;
2111;SDS011;1062;52.538;13.400;2023-03-01T12:01:49;4.13;;;2.90;;
2111;SDS011;1062;52.538;13.400;2023-03-01T12:12:35;2.67;;;2.43;;
2111;SDS011;1062;52.538;13.400;2023-03-01T12:34:47;4.37;;;2.03;;
2111;SDS011;1062;52.538;13.400;2023-03-01T12:50:57;2.17;;;1.93;;
2111;SDS011;1062;52.538;13.400;2023-03-01T12:53:32;2.43;;;2.23;;
2111;SDS011;1062;52.538;13.400;2023-03-01T12:56:11;2.70;;;2.10;;
2111;SDS011;1062;52.538;13.400;2023-03-01T13:03:58;4.93;;;2.67;;
2111;SDS011;1062;52.538;13.400;2023-03-01T13:09:54;6.00;;;1.97;;
2111;SDS011;1062;52.538;13.400;2023-03-01T13:17:47;4.10;;;2.00;;
2111;SDS011;1062;52.538;13.400;2023-03-01T13:20:15;4.23;;;2.33;;
2111;SDS011;1062;52.538;13.400;2023-03-01T13:22:43;5.13;;;2.20;;
2111;SDS011;1062;52.538;13.400;2023-03-01T13:25:13;3.40;;;2.30;;
2111;SDS011;1062;52.538;13.400;2023-03-01T13:27:41;2.50;;;2.30;;
2111;SDS011;1062;52.538;13.400;2023-03-01T13:30:38;6.13;;;2.30;;
2111;SDS011;1062;52.538;13.400;2023-03-01T13:35:55;2.60;;;2.33;;
2111;SDS011;1062;52.538;13.400;2023-03-01T13:38:38;2.57;;;1.80;;
2111;SDS011;1062;52.538;13.400;2023-03-01T13:49:45;3.07;;;2.00;;
2111;SDS011;1062;52.538;13.400;2023-03-01T13:54:52;2.17;;;1.90;;
2111;SDS011;1062;52.538;13.400;2023-03-01T13:57:21;2.30;;;1.47;;
2111;SDS011;1062;52.538;13.400;2023-03-01T13:59:51;2.03;;;1.93;;
2111;SDS011;1062;52.538;13.400;2023-03-01T14:02:16;2.60;;;1.83;;
2111;SDS011;1062;52.538;13.400;2023-03-01T14:04:42;2.47;;;1.87;;
2111;SDS011;1062;52.538;13.400;2023-03-01T14:07:11;1.93;;;1.67;;
2111;SDS011;1062;52.538;13.400;2023-03-01T14:09:42;1.90;;;1.47;;
2111;SDS011;1062;52.538;13.400;2023-03-01T14:14:59;1.77;;;1.67;;
2111;SDS011;1062;52.538;13.400;2023-03-01T14:20:16;8.13;;;2.30;;
2111;SDS011;1062;52.538;13.400;2023-03-01T14:22:51;3.00;;;1.80;;
2111;SDS011;1062;52.538;13.400;2023-03-01T14:28:04;3.47;;;2.17;;
2111;SDS011;1062;52.538;13.400;2023-03-01T14:30:42;2.70;;;1.73;;
2111;SDS011;1062;52.538;13.400;2023-03-01T14:33:28;2.37;;;1.97;;
2111;SDS011;1062;52.538;13.400;2023-03-01T14:36:02;2.40;;;1.53;;
2111;SDS011;1062;52.538;13.400;2023-03-01T14:38:36;2.20;;;1.97;;
2111;SDS011;1062;52.538;13.400;2023-03-01T14:41:13;2.73;;;1.97;;
2111;SDS011;1062;52.538;13.400;2023-03-01T14:43:49;4.53;;;2.00;;
2111;SDS011;1062;52.538;13.400;2023-03-01T14:46:19;3.20;;;1.50;;
2111;SDS011;1062;52.538;13.400;2023-03-01T14:48:48;3.97;;;2.10;;
2111;SDS011;1062;52.538;13.400;2023-03-01T14:51:19;2.37;;;2.17;;
2111;SDS011;1062;52.538;13.400;2023-03-01T14:53:45;3.70;;;1.90;;
2111;SDS011;1062;52.538;13.400;2023-03-01T14:56:14;3.37;;;1.80;;
2111;SDS011;1062;52.538;13.400;2023-03-01T14:58:44;2.17;;;1.70;;
2111;SDS011;1062;52.538;13.400;2023-03-01T15:01:13;4.10;;;2.23;;
2111;SDS011;1062;52.538;13.400;2023-03-01T15:03:42;3.10;;;2.57;;
2111;SDS011;1062;52.538;13.400;2023-03-01T15:06:11;3.40;;;2.20;;
2111;SDS011;1062;52.538;13.400;2023-03-01T15:08:42;3.40;;;1.80;;
2111;SDS011;1062;52.538;13.400;2023-03-01T15:13:53;5.77;;;2.87;;
2111;SDS011;1062;52.538;13.400;2023-03-01T15:16:21;2.27;;;2.07;;
2111;SDS011;1062;52.538;13.400;2023-03-01T15:18:57;2.83;;;2.37;;
2111;SDS011;1062;52.538;13.400;2023-03-01T15:21:46;4.67;;;2.13;;
2111;SDS011;1062;52.538;13.400;2023-03-01T15:24:37;1.60;;;1.50;;
2111;SDS011;1062;52.538;13.400;2023-03-01T15:27:12;3.40;;;2.40;;
2111;SDS011;1062;52.538;13.400;2023-03-01T15:29:53;2.50;;;1.70;;
2111;SDS011;1062;52.538;13.400;2023-03-01T15:32:34;2.00;;;1.80;;
2111;SDS011;1062;52.538;13.400;2023-03-01T15:38:03;5.30;;;2.63;;
2111;SDS011;1062;52.538;13.400;2023-03-01T15:40:29;3.67;;;2.57;;
2111;SDS011;1062;52.538;13.400;2023-03-01T15:42:58;5.53;;;2.07;;
2111;SDS011;1062;52.538;13.400;2023-03-01T15:45:31;5.73;;;4.30;;
2111;SDS011;1062;52.538;13.400;2023-03-01T15:48:04;6.73;;;2.93;;
2111;SDS011;1062;52.538;13.400;2023-03-01T15:50:55;5.10;;;2.80;;
2111;SDS011;1062;52.538;13.400;2023-03-01T15:53:23;3.97;;;2.17;;
2111;SDS011;1062;52.538;13.400;2023-03-01T15:55:49;3.80;;;2.47;;
2111;SDS011;1062;52.538;13.400;2023-03-01T15:58:19;3.03;;;2.33;;
2111;SDS011;1062;52.538;13.400;2023-03-01T16:00:47;6.33;;;3.77;;
2111;SDS011;1062;52.538;13.400;2023-03-01T16:03:16;2.43;;;2.20;;
2111;SDS011;1062;52.538;13.400;2023-03-01T16:05:46;2.97;;;2.67;;
2111;SDS011;1062;52.538;13.400;2023-03-01T16:08:13;3.50;;;2.43;;
2111;SDS011;1062;52.538;13.400;2023-03-01T16:10:40;3.40;;;2.57;;
2111;SDS011;1062;52.538;13.400;2023-03-01T16:13:06;2.30;;;2.10;;
2111;SDS011;1062;52.538;13.400;2023-03-01T16:15:35;3.33;;;1.80;;
2111;SDS011;1062;52.538;13.400;2023-03-01T16:18:03;3.43;;;2.10;;
2111;SDS011;1062;52.538;13.400;2023-03-01T16:20:35;3.53;;;2.73;;
2111;SDS011;1062;52.538;13.400;2023-03-01T16:23:01;4.47;;;2.50;;
2111;SDS011;1062;52.538;13.400;2023-03-01T16:25:28;2.90;;;2.53;;
2111;SDS011;1062;52.538;13.400;2023-03-01T16:27:55;3.27;;;2.40;;
2111;SDS011;1062;52.538;13.400;2023-03-01T16:30:21;4.20;;;2.77;;
2111;SDS011;1062;52.538;13.400;2023-03-01T16:32:48;3.53;;;3.07;;
2111;SDS011;1062;52.538;13.400;2023-03-01T16:35:15;2.30;;;2.03;;
2111;SDS011;1062;52.538;13.400;2023-03-01T16:37:43;3.47;;;2.87;;
2111;SDS011;1062;52.538;13.400;2023-03-01T16:40:22;3.40;;;2.20;;
2111;SDS011;1062;52.538;13.400;2023-03-01T16:42:51;9.80;;;2.90;;
2111;SDS011;1062;52.538;13.400;2023-03-01T16:45:18;5.00;;;2.87;;
2111;SDS011;1062;52.538;13.400;2023-03-01T16:47:44;4.33;;;2.30;;
2111;SDS011;1062;52.538;13.400;2023-03-01T16:50:09;5.83;;;2.67;;
2111;SDS011;1062;52.538;13.400;2023-03-01T16:52:35;3.60;;;2.50;;
2111;SDS011;1062;52.538;13.400;2023-03-01T16:55:02;7.10;;;2.73;;
2111;SDS011;1062;52.538;13.400;2023-03-01T16:57:29;2.43;;;1.70;;
2111;SDS011;1062;52.538;13.400;2023-03-01T16:59:55;2.77;;;2.30;;
2111;SDS011;1062;52.538;13.400;2023-03-01T17:02:20;3.90;;;2.77;;
2111;SDS011;1062;52.538;13.400;2023-03-01T17:04:54;4.07;;;2.13;;
2111;SDS011;1062;52.538;13.400;2023-03-01T17:07:20;3.70;;;2.97;;